KONX

Currituck County Regional Airport

Currituck, North Carolina, USA
METAR KONX 191455Z AUTO 24008KT 10SM CLR 01/M06 A3021 RMK AO2 T00121065
Observed Flight Rules
Jan-19 @ 14:55 UTC (28 minutes ago) Visual Flight Rules
Wind Visibility Clouds
240° at 8 knots 10 miles
  • Clear skies
Temperatures Readings
Current 1°C / 34°F
Dewpoint -7°C / 19°F
Humidity 56%
Altimeter 30.21" Hg
Pressure 1023 hPa
Elevation 5
METAR KONX 191455Z AUTO 24008KT 10SM CLR 01/M06 A3021 RMK AO2 T00121065
Observed Flight Rules
Jan-19 @ 14:55 UTC
(28 minutes ago)
VFR
Wind Visibility
240° at 8 knots 10 miles
Clouds
  • Clear skies
Temperature Dewpoint
1°C / 34°F -7°C / 19°F
Humidity Altimeter Pressure
56% 30.21" Hg 1023 hPa